09/11/2018 - State Farm Arena, Atlanta, GA. Temporada Regular

Atlanta Hawks - 109

Detroit Pistons - 124

  • Árbitros: Michael Smith,Zach Zarba,Ray Acosta
  • Asistencia: 14759 espectadores
  • Duración del partido: 2:16 horas
  • Número de empates durante el partido: 0
  • Cambios de líder: 0 veces

Dobles-Dobles

Tabla estadísticas

Detroit Pistons - 124
Jugador Min TC T3 TL +/- rebO rebD reb asis fp rob per tap tr Val ptos
Bruce Brown 5:20 0/1 0/1 0/0 -11 0 2 2 0 1 0 0 0 0 1 0
Khyri Thomas 3:39 1/3 1/2 0/0 -7 0 0 0 0 0 0 1 0 0 0 3
Jon Leuer 3:39 0/2 0/0 0/0 -7 0 0 0 0 1 0 0 0 0 -2 0
Andre Drummond 32:35 10/15 0/1 3/7 22 5 6 11 1 5 1 3 4 0 28 23
Blake Griffin 25:57 2/10 1/5 1/3 22 0 9 9 9 2 2 1 0 0 15 6
Stanley Johnson 24:14 8/16 4/9 2/3 -4 2 5 7 2 3 3 0 0 0 25 22
Langston Galloway 23:57 5/9 5/9 1/1 14 0 1 1 2 2 0 0 1 0 16 16
Reggie Bullock 23:32 5/9 3/6 0/0 15 0 3 3 4 2 0 1 0 0 15 13
Ish Smith 23:06 4/9 2/4 0/0 7 0 1 1 3 4 0 0 1 0 10 10
José Manuel Calderón 22:26 2/4 0/2 1/1 -7 0 1 1 4 4 0 0 0 0 8 5
Reggie Jackson 21:15 4/9 2/4 0/0 15 0 2 2 3 4 1 1 0 0 10 10
Glenn Robinson III 18:34 4/7 2/4 2/2 16 0 1 1 2 1 1 1 0 0 12 12
Zaza Pachulia 11:46 1/3 0/0 2/2 0 3 3 6 0 2 2 2 0 0 8 4
Total / / / 75 146
Atlanta Hawks - 109
Jugador Min TC T3 TL +/- rebO rebD reb asis fp rob per tap tr Val ptos
Tyler Dorsey 9:48 0/3 0/2 2/6 12 0 1 1 1 0 0 0 0 0 -3 2
Alex Len 7:57 1/5 0/2 0/0 -16 2 0 2 1 1 0 2 0 0 -1 2
Vince Carter 6:06 1/2 0/1 0/0 -6 0 1 1 1 0 0 0 0 0 3 2
Kevin Huerter 28:54 1/5 0/2 0/0 -2 0 6 6 3 3 0 0 0 0 7 2
Omari Spellman 26:40 5/10 2/5 2/2 -16 3 7 10 0 1 1 1 0 0 19 14
Dewayne Dedmon 26:25 4/8 1/3 4/4 -7 0 9 9 0 4 0 1 0 0 17 13
Trae Young 23:13 4/9 0/3 8/8 -18 1 3 4 5 1 0 6 0 0 14 16
Kent Bazemore 21:45 3/6 0/0 2/2 -19 0 3 3 1 1 0 2 1 0 8 8
Taurean Prince 21:43 2/5 1/3 1/1 -14 0 5 5 0 0 2 2 0 0 8 6
Jeremy Lin 21:36 5/9 2/4 7/7 4 0 3 3 4 2 3 0 0 0 25 19
Miles Plumlee 17:29 7/8 0/0 0/2 9 1 3 4 1 1 0 1 1 0 16 14
DeAndre Bembry 17:27 2/6 0/1 4/8 -8 1 2 3 0 2 0 1 0 0 2 8
Alex Poythress 10:55 1/3 1/2 0/0 6 1 1 2 0 5 0 0 0 0 3 3
Total / / / -75 118



temporada 201819

Calendario por equipos

Selecciona equipo NBA y tipo partidos

enfrentamientos equipos

Selecciona enfrentamiento equipos NBA